sensor_id;sensor_type;location;lat;lon;timestamp;P1;P2;P0
64627;PMS5003;68467;50.960;0.314;2024-03-07T00:00:13;23;22;
64627;PMS5003;68467;50.960;0.314;2024-03-07T00:02:41;23;23;
64627;PMS5003;68467;50.960;0.314;2024-03-07T00:05:08;25;24;
64627;PMS5003;68467;50.960;0.314;2024-03-07T00:07:35;29;27;
64627;PMS5003;68467;50.960;0.314;2024-03-07T00:10:03;26;25;
64627;PMS5003;68467;50.960;0.314;2024-03-07T00:12:30;22;21;
64627;PMS5003;68467;50.960;0.314;2024-03-07T00:14:58;22;20;
64627;PMS5003;68467;50.960;0.314;2024-03-07T00:17:25;20;20;
64627;PMS5003;68467;50.960;0.314;2024-03-07T00:19:52;25;24;
64627;PMS5003;68467;50.960;0.314;2024-03-07T00:22:20;24;23;
64627;PMS5003;68467;50.960;0.314;2024-03-07T00:24:47;20;20;
64627;PMS5003;68467;50.960;0.314;2024-03-07T00:27:14;23;23;
64627;PMS5003;68467;50.960;0.314;2024-03-07T00:29:43;24;23;
64627;PMS5003;68467;50.960;0.314;2024-03-07T00:32:10;22;19;
64627;PMS5003;68467;50.960;0.314;2024-03-07T00:34:38;23;22;
64627;PMS5003;68467;50.960;0.314;2024-03-07T00:37:06;22;22;
64627;PMS5003;68467;50.960;0.314;2024-03-07T00:39:33;26;22;
64627;PMS5003;68467;50.960;0.314;2024-03-07T00:42:01;24;22;
64627;PMS5003;68467;50.960;0.314;2024-03-07T00:44:29;24;23;
64627;PMS5003;68467;50.960;0.314;2024-03-07T00:46:56;25;21;
64627;PMS5003;68467;50.960;0.314;2024-03-07T00:49:23;28;24;
64627;PMS5003;68467;50.960;0.314;2024-03-07T00:51:51;25;25;
64627;PMS5003;68467;50.960;0.314;2024-03-07T00:54:18;30;28;
64627;PMS5003;68467;50.960;0.314;2024-03-07T00:56:46;32;30;
64627;PMS5003;68467;50.960;0.314;2024-03-07T00:59:13;22;20;
64627;PMS5003;68467;50.960;0.314;2024-03-07T01:01:41;24;23;
64627;PMS5003;68467;50.960;0.314;2024-03-07T01:04:08;25;23;
64627;PMS5003;68467;50.960;0.314;2024-03-07T01:06:36;24;24;
64627;PMS5003;68467;50.960;0.314;2024-03-07T01:09:04;25;24;
64627;PMS5003;68467;50.960;0.314;2024-03-07T01:11:31;22;21;
64627;PMS5003;68467;50.960;0.314;2024-03-07T01:13:58;26;25;
64627;PMS5003;68467;50.960;0.314;2024-03-07T01:16:26;22;21;
64627;PMS5003;68467;50.960;0.314;2024-03-07T01:18:53;23;22;
64627;PMS5003;68467;50.960;0.314;2024-03-07T01:21:20;26;25;
64627;PMS5003;68467;50.960;0.314;2024-03-07T01:23:48;31;28;
64627;PMS5003;68467;50.960;0.314;2024-03-07T01:26:15;26;26;
64627;PMS5003;68467;50.960;0.314;2024-03-07T01:28:43;32;32;
64627;PMS5003;68467;50.960;0.314;2024-03-07T01:31:10;31;30;
64627;PMS5003;68467;50.960;0.314;2024-03-07T01:33:38;30;29;
64627;PMS5003;68467;50.960;0.314;2024-03-07T01:36:06;41;39;
64627;PMS5003;68467;50.960;0.314;2024-03-07T01:38:33;33;31;
64627;PMS5003;68467;50.960;0.314;2024-03-07T01:41:01;43;39;
64627;PMS5003;68467;50.960;0.314;2024-03-07T01:43:29;33;32;
64627;PMS5003;68467;50.960;0.314;2024-03-07T01:45:56;40;39;
64627;PMS5003;68467;50.960;0.314;2024-03-07T01:48:26;45;44;
64627;PMS5003;68467;50.960;0.314;2024-03-07T01:50:55;44;41;
64627;PMS5003;68467;50.960;0.314;2024-03-07T01:53:23;42;38;
64627;PMS5003;68467;50.960;0.314;2024-03-07T01:55:52;43;39;
64627;PMS5003;68467;50.960;0.314;2024-03-07T01:58:19;43;36;
64627;PMS5003;68467;50.960;0.314;2024-03-07T02:00:47;49;43;
64627;PMS5003;68467;50.960;0.314;2024-03-07T02:03:14;42;39;
64627;PMS5003;68467;50.960;0.314;2024-03-07T02:05:42;40;35;
64627;PMS5003;68467;50.960;0.314;2024-03-07T02:08:10;46;41;
64627;PMS5003;68467;50.960;0.314;2024-03-07T02:10:38;43;39;
64627;PMS5003;68467;50.960;0.314;2024-03-07T02:13:05;43;40;
64627;PMS5003;68467;50.960;0.314;2024-03-07T02:15:33;39;37;
64627;PMS5003;68467;50.960;0.314;2024-03-07T02:18:00;42;36;
64627;PMS5003;68467;50.960;0.314;2024-03-07T02:20:28;39;35;
64627;PMS5003;68467;50.960;0.314;2024-03-07T02:22:55;41;35;
64627;PMS5003;68467;50.960;0.314;2024-03-07T02:25:22;41;39;
64627;PMS5003;68467;50.960;0.314;2024-03-07T02:27:49;39;38;
64627;PMS5003;68467;50.960;0.314;2024-03-07T02:30:17;40;36;
64627;PMS5003;68467;50.960;0.314;2024-03-07T02:32:45;33;33;
64627;PMS5003;68467;50.960;0.314;2024-03-07T02:35:13;41;35;
64627;PMS5003;68467;50.960;0.314;2024-03-07T02:37:41;40;37;
64627;PMS5003;68467;50.960;0.314;2024-03-07T02:40:08;38;34;
64627;PMS5003;68467;50.960;0.314;2024-03-07T02:42:35;39;36;
64627;PMS5003;68467;50.960;0.314;2024-03-07T02:45:02;50;42;
64627;PMS5003;68467;50.960;0.314;2024-03-07T02:47:30;36;34;
64627;PMS5003;68467;50.960;0.314;2024-03-07T02:49:57;37;33;
64627;PMS5003;68467;50.960;0.314;2024-03-07T02:52:25;49;39;
64627;PMS5003;68467;50.960;0.314;2024-03-07T02:54:52;31;28;
64627;PMS5003;68467;50.960;0.314;2024-03-07T02:57:20;32;29;
64627;PMS5003;68467;50.960;0.314;2024-03-07T02:59:47;31;27;
64627;PMS5003;68467;50.960;0.314;2024-03-07T03:02:14;34;30;
64627;PMS5003;68467;50.960;0.314;2024-03-07T03:04:41;28;24;
64627;PMS5003;68467;50.960;0.314;2024-03-07T03:07:09;37;36;
64627;PMS5003;68467;50.960;0.314;2024-03-07T03:09:36;30;30;
64627;PMS5003;68467;50.960;0.314;2024-03-07T03:12:03;38;33;
64627;PMS5003;68467;50.960;0.314;2024-03-07T03:14:31;38;35;
64627;PMS5003;68467;50.960;0.314;2024-03-07T03:16:58;40;36;
64627;PMS5003;68467;50.960;0.314;2024-03-07T03:19:25;28;26;
64627;PMS5003;68467;50.960;0.314;2024-03-07T03:21:53;39;36;
64627;PMS5003;68467;50.960;0.314;2024-03-07T03:24:20;32;26;
64627;PMS5003;68467;50.960;0.314;2024-03-07T03:26:47;37;33;
64627;PMS5003;68467;50.960;0.314;2024-03-07T03:29:15;38;34;
64627;PMS5003;68467;50.960;0.314;2024-03-07T03:31:42;35;32;
64627;PMS5003;68467;50.960;0.314;2024-03-07T03:34:10;35;33;
64627;PMS5003;68467;50.960;0.314;2024-03-07T03:36:37;38;36;
64627;PMS5003;68467;50.960;0.314;2024-03-07T03:39:04;31;31;
64627;PMS5003;68467;50.960;0.314;2024-03-07T03:41:31;38;29;
64627;PMS5003;68467;50.960;0.314;2024-03-07T03:43:58;37;34;
64627;PMS5003;68467;50.960;0.314;2024-03-07T03:46:25;29;24;
64627;PMS5003;68467;50.960;0.314;2024-03-07T03:48:52;35;32;
64627;PMS5003;68467;50.960;0.314;2024-03-07T03:51:20;33;29;
64627;PMS5003;68467;50.960;0.314;2024-03-07T03:53:47;38;36;
64627;PMS5003;68467;50.960;0.314;2024-03-07T03:56:14;34;32;
64627;PMS5003;68467;50.960;0.314;2024-03-07T03:58:41;33;30;
64627;PMS5003;68467;50.960;0.314;2024-03-07T04:01:09;37;34;
64627;PMS5003;68467;50.960;0.314;2024-03-07T04:03:36;31;29;
64627;PMS5003;68467;50.960;0.314;2024-03-07T04:06:04;40;36;
64627;PMS5003;68467;50.960;0.314;2024-03-07T04:08:32;31;28;
64627;PMS5003;68467;50.960;0.314;2024-03-07T04:10:59;30;28;
64627;PMS5003;68467;50.960;0.314;2024-03-07T04:13:26;32;31;
64627;PMS5003;68467;50.960;0.314;2024-03-07T04:15:53;35;32;
64627;PMS5003;68467;50.960;0.314;2024-03-07T04:18:20;38;34;
64627;PMS5003;68467;50.960;0.314;2024-03-07T04:20:48;38;34;
64627;PMS5003;68467;50.960;0.314;2024-03-07T04:23:15;36;33;
64627;PMS5003;68467;50.960;0.314;2024-03-07T04:25:42;34;32;
64627;PMS5003;68467;50.960;0.314;2024-03-07T04:28:10;40;38;
64627;PMS5003;68467;50.960;0.314;2024-03-07T04:30:37;30;29;
64627;PMS5003;68467;50.960;0.314;2024-03-07T04:33:04;36;33;
64627;PMS5003;68467;50.960;0.314;2024-03-07T04:35:31;43;36;
64627;PMS5003;68467;50.960;0.314;2024-03-07T04:37:58;31;29;
64627;PMS5003;68467;50.960;0.314;2024-03-07T04:40:25;42;37;
64627;PMS5003;68467;50.960;0.314;2024-03-07T04:42:52;40;37;
64627;PMS5003;68467;50.960;0.314;2024-03-07T04:45:19;31;28;
64627;PMS5003;68467;50.960;0.314;2024-03-07T04:47:47;37;33;
64627;PMS5003;68467;50.960;0.314;2024-03-07T04:50:14;34;32;
64627;PMS5003;68467;50.960;0.314;2024-03-07T04:52:41;33;32;
64627;PMS5003;68467;50.960;0.314;2024-03-07T04:55:08;34;30;
64627;PMS5003;68467;50.960;0.314;2024-03-07T04:57:36;39;34;
64627;PMS5003;68467;50.960;0.314;2024-03-07T05:00:03;38;34;
64627;PMS5003;68467;50.960;0.314;2024-03-07T05:02:31;37;32;
64627;PMS5003;68467;50.960;0.314;2024-03-07T05:04:58;38;35;
64627;PMS5003;68467;50.960;0.314;2024-03-07T05:07:26;35;33;
64627;PMS5003;68467;50.960;0.314;2024-03-07T05:09:53;36;33;
64627;PMS5003;68467;50.960;0.314;2024-03-07T05:12:21;37;35;
64627;PMS5003;68467;50.960;0.314;2024-03-07T05:14:48;36;32;
64627;PMS5003;68467;50.960;0.314;2024-03-07T05:17:15;34;33;
64627;PMS5003;68467;50.960;0.314;2024-03-07T05:19:42;40;36;
64627;PMS5003;68467;50.960;0.314;2024-03-07T05:22:10;36;34;
64627;PMS5003;68467;50.960;0.314;2024-03-07T05:24:37;36;34;
64627;PMS5003;68467;50.960;0.314;2024-03-07T05:27:04;45;37;
64627;PMS5003;68467;50.960;0.314;2024-03-07T05:29:32;36;34;
64627;PMS5003;68467;50.960;0.314;2024-03-07T05:32:17;47;41;
64627;PMS5003;68467;50.960;0.314;2024-03-07T05:34:47;49;45;
64627;PMS5003;68467;50.960;0.314;2024-03-07T05:37:14;48;45;
64627;PMS5003;68467;50.960;0.314;2024-03-07T05:39:41;46;40;
64627;PMS5003;68467;50.960;0.314;2024-03-07T05:42:08;42;41;
64627;PMS5003;68467;50.960;0.314;2024-03-07T05:44:36;51;43;
64627;PMS5003;68467;50.960;0.314;2024-03-07T05:47:03;43;41;
64627;PMS5003;68467;50.960;0.314;2024-03-07T05:49:30;46;45;
64627;PMS5003;68467;50.960;0.314;2024-03-07T05:51:58;47;46;
64627;PMS5003;68467;50.960;0.314;2024-03-07T05:54:25;51;46;
64627;PMS5003;68467;50.960;0.314;2024-03-07T05:56:52;46;45;
64627;PMS5003;68467;50.960;0.314;2024-03-07T05:59:19;53;47;
64627;PMS5003;68467;50.960;0.314;2024-03-07T06:01:47;43;42;
64627;PMS5003;68467;50.960;0.314;2024-03-07T06:04:15;45;43;
64627;PMS5003;68467;50.960;0.314;2024-03-07T06:06:42;47;43;
64627;PMS5003;68467;50.960;0.314;2024-03-07T06:09:10;47;45;
64627;PMS5003;68467;50.960;0.314;2024-03-07T06:11:37;43;41;
64627;PMS5003;68467;50.960;0.314;2024-03-07T06:14:05;51;48;
64627;PMS5003;68467;50.960;0.314;2024-03-07T06:16:33;49;45;
64627;PMS5003;68467;50.960;0.314;2024-03-07T06:19:03;44;41;
64627;PMS5003;68467;50.960;0.314;2024-03-07T06:21:30;51;48;
64627;PMS5003;68467;50.960;0.314;2024-03-07T06:23:57;47;46;
64627;PMS5003;68467;50.960;0.314;2024-03-07T06:26:24;49;46;
64627;PMS5003;68467;50.960;0.314;2024-03-07T06:28:52;52;49;
64627;PMS5003;68467;50.960;0.314;2024-03-07T06:31:19;46;45;
64627;PMS5003;68467;50.960;0.314;2024-03-07T06:33:47;45;39;
64627;PMS5003;68467;50.960;0.314;2024-03-07T06:36:14;48;44;
64627;PMS5003;68467;50.960;0.314;2024-03-07T06:38:42;42;41;
64627;PMS5003;68467;50.960;0.314;2024-03-07T06:41:08;51;45;
64627;PMS5003;68467;50.960;0.314;2024-03-07T06:43:35;43;42;
64627;PMS5003;68467;50.960;0.314;2024-03-07T06:46:03;45;42;
64627;PMS5003;68467;50.960;0.314;2024-03-07T06:48:30;56;47;
64627;PMS5003;68467;50.960;0.314;2024-03-07T06:50:56;55;50;
64627;PMS5003;68467;50.960;0.314;2024-03-07T06:53:25;48;43;
64627;PMS5003;68467;50.960;0.314;2024-03-07T06:55:52;51;47;
64627;PMS5003;68467;50.960;0.314;2024-03-07T06:58:20;57;50;
64627;PMS5003;68467;50.960;0.314;2024-03-07T07:00:48;56;48;
64627;PMS5003;68467;50.960;0.314;2024-03-07T07:03:16;62;54;
64627;PMS5003;68467;50.960;0.314;2024-03-07T07:05:43;58;56;
64627;PMS5003;68467;50.960;0.314;2024-03-07T07:08:10;52;49;
64627;PMS5003;68467;50.960;0.314;2024-03-07T07:10:38;60;56;
64627;PMS5003;68467;50.960;0.314;2024-03-07T07:13:05;55;51;
64627;PMS5003;68467;50.960;0.314;2024-03-07T07:15:33;61;52;
64627;PMS5003;68467;50.960;0.314;2024-03-07T07:18:00;60;52;
64627;PMS5003;68467;50.960;0.314;2024-03-07T07:20:27;52;50;
64627;PMS5003;68467;50.960;0.314;2024-03-07T07:22:55;55;49;
64627;PMS5003;68467;50.960;0.314;2024-03-07T07:25:22;55;50;
64627;PMS5003;68467;50.960;0.314;2024-03-07T07:27:50;55;49;
64627;PMS5003;68467;50.960;0.314;2024-03-07T07:30:18;52;45;
64627;PMS5003;68467;50.960;0.314;2024-03-07T07:32:46;54;49;
64627;PMS5003;68467;50.960;0.314;2024-03-07T07:35:13;53;51;
64627;PMS5003;68467;50.960;0.314;2024-03-07T07:37:41;63;50;
64627;PMS5003;68467;50.960;0.314;2024-03-07T07:40:11;57;55;
64627;PMS5003;68467;50.960;0.314;2024-03-07T07:42:39;60;51;
64627;PMS5003;68467;50.960;0.314;2024-03-07T07:45:07;55;49;
64627;PMS5003;68467;50.960;0.314;2024-03-07T07:47:35;56;47;
64627;PMS5003;68467;50.960;0.314;2024-03-07T07:50:03;56;53;
64627;PMS5003;68467;50.960;0.314;2024-03-07T07:52:31;61;54;
64627;PMS5003;68467;50.960;0.314;2024-03-07T07:54:59;69;63;
64627;PMS5003;68467;50.960;0.314;2024-03-07T07:57:27;60;55;
64627;PMS5003;68467;50.960;0.314;2024-03-07T07:59:54;68;60;
64627;PMS5003;68467;50.960;0.314;2024-03-07T08:02:21;71;69;
64627;PMS5003;68467;50.960;0.314;2024-03-07T08:04:48;74;65;
64627;PMS5003;68467;50.960;0.314;2024-03-07T08:07:16;72;62;
64627;PMS5003;68467;50.960;0.314;2024-03-07T08:09:43;70;63;
64627;PMS5003;68467;50.960;0.314;2024-03-07T08:12:10;79;67;
64627;PMS5003;68467;50.960;0.314;2024-03-07T08:14:38;77;63;
64627;PMS5003;68467;50.960;0.314;2024-03-07T08:17:06;77;64;
64627;PMS5003;68467;50.960;0.314;2024-03-07T08:19:33;78;72;
64627;PMS5003;68467;50.960;0.314;2024-03-07T08:22:01;85;65;
64627;PMS5003;68467;50.960;0.314;2024-03-07T08:24:28;70;65;
64627;PMS5003;68467;50.960;0.314;2024-03-07T08:26:56;80;69;
64627;PMS5003;68467;50.960;0.314;2024-03-07T08:29:23;71;61;
64627;PMS5003;68467;50.960;0.314;2024-03-07T08:31:51;87;69;
64627;PMS5003;68467;50.960;0.314;2024-03-07T08:34:18;70;65;
64627;PMS5003;68467;50.960;0.314;2024-03-07T08:36:46;67;61;
64627;PMS5003;68467;50.960;0.314;2024-03-07T08:39:14;70;63;
64627;PMS5003;68467;50.960;0.314;2024-03-07T08:41:41;64;57;
64627;PMS5003;68467;50.960;0.314;2024-03-07T08:44:08;64;57;
64627;PMS5003;68467;50.960;0.314;2024-03-07T08:46:36;72;66;
64627;PMS5003;68467;50.960;0.314;2024-03-07T08:49:03;62;58;
64627;PMS5003;68467;50.960;0.314;2024-03-07T08:51:31;74;65;
64627;PMS5003;68467;50.960;0.314;2024-03-07T08:53:58;70;61;
64627;PMS5003;68467;50.960;0.314;2024-03-07T08:56:25;73;60;
64627;PMS5003;68467;50.960;0.314;2024-03-07T08:58:52;66;61;
64627;PMS5003;68467;50.960;0.314;2024-03-07T09:01:20;77;68;
64627;PMS5003;68467;50.960;0.314;2024-03-07T09:03:47;70;64;
64627;PMS5003;68467;50.960;0.314;2024-03-07T09:06:14;76;70;
64627;PMS5003;68467;50.960;0.314;2024-03-07T09:08:41;79;70;
64627;PMS5003;68467;50.960;0.314;2024-03-07T09:11:08;69;66;
64627;PMS5003;68467;50.960;0.314;2024-03-07T09:13:36;79;73;
64627;PMS5003;68467;50.960;0.314;2024-03-07T09:16:03;80;73;
64627;PMS5003;68467;50.960;0.314;2024-03-07T09:18:31;79;74;
64627;PMS5003;68467;50.960;0.314;2024-03-07T09:20:58;71;68;
64627;PMS5003;68467;50.960;0.314;2024-03-07T09:23:26;76;75;
64627;PMS5003;68467;50.960;0.314;2024-03-07T09:25:53;73;68;
64627;PMS5003;68467;50.960;0.314;2024-03-07T09:28:20;63;60;
64627;PMS5003;68467;50.960;0.314;2024-03-07T09:30:47;72;67;
64627;PMS5003;68467;50.960;0.314;2024-03-07T09:33:15;72;59;
64627;PMS5003;68467;50.960;0.314;2024-03-07T09:35:42;81;71;
64627;PMS5003;68467;50.960;0.314;2024-03-07T09:38:09;67;66;
64627;PMS5003;68467;50.960;0.314;2024-03-07T09:40:36;69;63;
64627;PMS5003;68467;50.960;0.314;2024-03-07T09:43:04;81;76;
64627;PMS5003;68467;50.960;0.314;2024-03-07T09:45:33;73;65;
64627;PMS5003;68467;50.960;0.314;2024-03-07T09:48:01;82;72;
64627;PMS5003;68467;50.960;0.314;2024-03-07T09:50:29;69;64;
64627;PMS5003;68467;50.960;0.314;2024-03-07T09:52:57;77;69;
64627;PMS5003;68467;50.960;0.314;2024-03-07T09:55:25;73;68;
64627;PMS5003;68467;50.960;0.314;2024-03-07T09:57:53;83;73;
64627;PMS5003;68467;50.960;0.314;2024-03-07T10:00:21;80;76;
64627;PMS5003;68467;50.960;0.314;2024-03-07T10:02:49;81;78;
64627;PMS5003;68467;50.960;0.314;2024-03-07T10:05:21;86;79;
64627;PMS5003;68467;50.960;0.314;2024-03-07T10:07:50;87;78;
64627;PMS5003;68467;50.960;0.314;2024-03-07T10:10:17;86;77;
64627;PMS5003;68467;50.960;0.314;2024-03-07T10:12:45;90;80;
64627;PMS5003;68467;50.960;0.314;2024-03-07T10:15:12;99;90;
64627;PMS5003;68467;50.960;0.314;2024-03-07T10:17:39;90;81;
64627;PMS5003;68467;50.960;0.314;2024-03-07T10:20:07;97;90;
64627;PMS5003;68467;50.960;0.314;2024-03-07T10:22:35;96;87;
64627;PMS5003;68467;50.960;0.314;2024-03-07T10:25:03;102;90;
64627;PMS5003;68467;50.960;0.314;2024-03-07T10:27:31;92;85;
64627;PMS5003;68467;50.960;0.314;2024-03-07T10:30:02;109;94;
64627;PMS5003;68467;50.960;0.314;2024-03-07T10:32:30;111;98;
64627;PMS5003;68467;50.960;0.314;2024-03-07T10:34:57;112;100;
64627;PMS5003;68467;50.960;0.314;2024-03-07T10:37:25;101;92;
64627;PMS5003;68467;50.960;0.314;2024-03-07T10:39:52;114;95;
64627;PMS5003;68467;50.960;0.314;2024-03-07T10:42:20;101;97;
64627;PMS5003;68467;50.960;0.314;2024-03-07T10:44:47;116;102;
64627;PMS5003;68467;50.960;0.314;2024-03-07T10:47:15;108;99;
64627;PMS5003;68467;50.960;0.314;2024-03-07T10:49:48;104;95;
64627;PMS5003;68467;50.960;0.314;2024-03-07T10:52:28;105;91;
64627;PMS5003;68467;50.960;0.314;2024-03-07T10:55:06;93;90;
64627;PMS5003;68467;50.960;0.314;2024-03-07T10:57:42;101;94;
64627;PMS5003;68467;50.960;0.314;2024-03-07T11:00:16;105;95;
64627;PMS5003;68467;50.960;0.314;2024-03-07T11:02:46;109;91;
64627;PMS5003;68467;50.960;0.314;2024-03-07T11:05:13;95;91;
64627;PMS5003;68467;50.960;0.314;2024-03-07T11:07:42;105;94;
64627;PMS5003;68467;50.960;0.314;2024-03-07T11:10:11;99;92;
64627;PMS5003;68467;50.960;0.314;2024-03-07T11:12:39;97;80;
64627;PMS5003;68467;50.960;0.314;2024-03-07T11:15:08;109;95;
64627;PMS5003;68467;50.960;0.314;2024-03-07T11:17:37;98;92;
64627;PMS5003;68467;50.960;0.314;2024-03-07T11:20:19;95;90;
64627;PMS5003;68467;50.960;0.314;2024-03-07T11:22:47;109;95;
64627;PMS5003;68467;50.960;0.314;2024-03-07T11:25:17;103;91;
64627;PMS5003;68467;50.960;0.314;2024-03-07T11:27:54;99;97;
64627;PMS5003;68467;50.960;0.314;2024-03-07T11:30:23;107;95;
64627;PMS5003;68467;50.960;0.314;2024-03-07T11:32:51;106;94;
64627;PMS5003;68467;50.960;0.314;2024-03-07T11:35:20;102;93;
64627;PMS5003;68467;50.960;0.314;2024-03-07T11:37:57;105;85;
64627;PMS5003;68467;50.960;0.314;2024-03-07T11:40:59;109;93;
64627;PMS5003;68467;50.960;0.314;2024-03-07T11:43:27;98;85;
64627;PMS5003;68467;50.960;0.314;2024-03-07T11:45:54;102;92;
64627;PMS5003;68467;50.960;0.314;2024-03-07T11:48:23;95;83;
64627;PMS5003;68467;50.960;0.314;2024-03-07T11:50:51;88;85;
64627;PMS5003;68467;50.960;0.314;2024-03-07T11:53:18;93;86;
64627;PMS5003;68467;50.960;0.314;2024-03-07T11:55:47;94;83;
64627;PMS5003;68467;50.960;0.314;2024-03-07T11:58:15;93;82;
64627;PMS5003;68467;50.960;0.314;2024-03-07T12:00:44;86;84;
64627;PMS5003;68467;50.960;0.314;2024-03-07T12:03:13;92;85;
64627;PMS5003;68467;50.960;0.314;2024-03-07T12:05:40;83;77;
64627;PMS5003;68467;50.960;0.314;2024-03-07T12:08:08;82;76;
64627;PMS5003;68467;50.960;0.314;2024-03-07T12:10:37;84;76;
64627;PMS5003;68467;50.960;0.314;2024-03-07T12:13:06;89;82;
64627;PMS5003;68467;50.960;0.314;2024-03-07T12:15:33;89;81;
64627;PMS5003;68467;50.960;0.314;2024-03-07T12:18:03;91;84;
64627;PMS5003;68467;50.960;0.314;2024-03-07T12:20:33;84;75;
64627;PMS5003;68467;50.960;0.314;2024-03-07T12:23:02;78;71;
64627;PMS5003;68467;50.960;0.314;2024-03-07T12:25:30;76;70;
64627;PMS5003;68467;50.960;0.314;2024-03-07T12:28:01;77;70;
64627;PMS5003;68467;50.960;0.314;2024-03-07T12:30:30;80;71;
64627;PMS5003;68467;50.960;0.314;2024-03-07T12:32:58;76;68;
64627;PMS5003;68467;50.960;0.314;2024-03-07T12:35:26;73;68;
64627;PMS5003;68467;50.960;0.314;2024-03-07T12:37:53;70;65;
64627;PMS5003;68467;50.960;0.314;2024-03-07T12:40:21;69;66;
64627;PMS5003;68467;50.960;0.314;2024-03-07T12:42:50;71;67;
64627;PMS5003;68467;50.960;0.314;2024-03-07T12:45:18;70;63;
64627;PMS5003;68467;50.960;0.314;2024-03-07T12:47:46;75;67;
64627;PMS5003;68467;50.960;0.314;2024-03-07T12:50:14;70;67;
64627;PMS5003;68467;50.960;0.314;2024-03-07T12:52:41;71;67;
64627;PMS5003;68467;50.960;0.314;2024-03-07T12:55:13;66;60;
64627;PMS5003;68467;50.960;0.314;2024-03-07T12:57:43;65;59;
64627;PMS5003;68467;50.960;0.314;2024-03-07T13:00:12;66;61;
64627;PMS5003;68467;50.960;0.314;2024-03-07T13:02:40;62;56;
64627;PMS5003;68467;50.960;0.314;2024-03-07T13:05:08;58;52;
64627;PMS5003;68467;50.960;0.314;2024-03-07T13:07:35;58;54;
64627;PMS5003;68467;50.960;0.314;2024-03-07T13:10:02;55;53;
64627;PMS5003;68467;50.960;0.314;2024-03-07T13:12:30;55;48;
64627;PMS5003;68467;50.960;0.314;2024-03-07T13:14:57;62;55;
64627;PMS5003;68467;50.960;0.314;2024-03-07T13:17:24;58;56;
64627;PMS5003;68467;50.960;0.314;2024-03-07T13:19:52;56;51;
64627;PMS5003;68467;50.960;0.314;2024-03-07T13:22:19;49;44;
64627;PMS5003;68467;50.960;0.314;2024-03-07T13:24:46;55;52;
64627;PMS5003;68467;50.960;0.314;2024-03-07T13:27:14;50;47;
64627;PMS5003;68467;50.960;0.314;2024-03-07T13:29:41;56;50;
64627;PMS5003;68467;50.960;0.314;2024-03-07T13:32:08;49;45;
64627;PMS5003;68467;50.960;0.314;2024-03-07T13:34:36;50;46;
64627;PMS5003;68467;50.960;0.314;2024-03-07T13:37:04;44;42;
64627;PMS5003;68467;50.960;0.314;2024-03-07T13:39:31;46;43;
64627;PMS5003;68467;50.960;0.314;2024-03-07T13:41:59;47;44;
64627;PMS5003;68467;50.960;0.314;2024-03-07T13:44:26;45;41;
64627;PMS5003;68467;50.960;0.314;2024-03-07T13:46:53;50;47;
64627;PMS5003;68467;50.960;0.314;2024-03-07T13:49:20;48;47;
64627;PMS5003;68467;50.960;0.314;2024-03-07T13:51:47;41;39;
64627;PMS5003;68467;50.960;0.314;2024-03-07T13:54:15;40;37;
64627;PMS5003;68467;50.960;0.314;2024-03-07T13:56:45;44;41;
64627;PMS5003;68467;50.960;0.314;2024-03-07T14:00:26;47;44;
64627;PMS5003;68467;50.960;0.314;2024-03-07T14:03:11;46;44;
64627;PMS5003;68467;50.960;0.314;2024-03-07T14:05:55;41;35;
64627;PMS5003;68467;50.960;0.314;2024-03-07T14:08:33;37;32;
64627;PMS5003;68467;50.960;0.314;2024-03-07T14:12:32;34;31;
64627;PMS5003;68467;50.960;0.314;2024-03-07T14:15:38;34;33;
64627;PMS5003;68467;50.960;0.314;2024-03-07T14:18:09;35;33;
64627;PMS5003;68467;50.960;0.314;2024-03-07T14:21:05;42;38;
64627;PMS5003;68467;50.960;0.314;2024-03-07T14:23:56;40;37;
64627;PMS5003;68467;50.960;0.314;2024-03-07T14:26:52;39;33;
64627;PMS5003;68467;50.960;0.314;2024-03-07T14:29:39;38;36;
64627;PMS5003;68467;50.960;0.314;2024-03-07T14:32:11;39;34;
64627;PMS5003;68467;50.960;0.314;2024-03-07T14:34:45;38;35;
64627;PMS5003;68467;50.960;0.314;2024-03-07T14:37:23;32;31;
64627;PMS5003;68467;50.960;0.314;2024-03-07T14:39:52;44;38;
64627;PMS5003;68467;50.960;0.314;2024-03-07T14:42:31;43;38;
64627;PMS5003;68467;50.960;0.314;2024-03-07T14:44:58;47;42;
64627;PMS5003;68467;50.960;0.314;2024-03-07T14:47:25;44;40;
64627;PMS5003;68467;50.960;0.314;2024-03-07T14:49:53;49;48;
64627;PMS5003;68467;50.960;0.314;2024-03-07T14:52:20;48;45;
64627;PMS5003;68467;50.960;0.314;2024-03-07T14:54:47;51;46;
64627;PMS5003;68467;50.960;0.314;2024-03-07T14:57:15;53;45;
64627;PMS5003;68467;50.960;0.314;2024-03-07T14:59:43;59;53;
64627;PMS5003;68467;50.960;0.314;2024-03-07T15:02:10;42;41;
64627;PMS5003;68467;50.960;0.314;2024-03-07T15:04:39;46;45;
64627;PMS5003;68467;50.960;0.314;2024-03-07T15:07:07;50;46;
64627;PMS5003;68467;50.960;0.314;2024-03-07T15:09:34;50;46;
64627;PMS5003;68467;50.960;0.314;2024-03-07T15:12:02;57;52;
64627;PMS5003;68467;50.960;0.314;2024-03-07T15:14:30;48;46;
64627;PMS5003;68467;50.960;0.314;2024-03-07T15:16:57;43;40;
64627;PMS5003;68467;50.960;0.314;2024-03-07T15:19:24;45;43;
64627;PMS5003;68467;50.960;0.314;2024-03-07T15:21:51;53;47;
64627;PMS5003;68467;50.960;0.314;2024-03-07T15:24:18;47;44;
64627;PMS5003;68467;50.960;0.314;2024-03-07T15:26:47;46;45;
64627;PMS5003;68467;50.960;0.314;2024-03-07T15:29:15;49;44;
64627;PMS5003;68467;50.960;0.314;2024-03-07T15:31:42;42;41;
64627;PMS5003;68467;50.960;0.314;2024-03-07T15:34:10;49;47;
64627;PMS5003;68467;50.960;0.314;2024-03-07T15:36:37;40;39;
64627;PMS5003;68467;50.960;0.314;2024-03-07T15:39:04;47;45;
64627;PMS5003;68467;50.960;0.314;2024-03-07T15:41:31;48;43;
64627;PMS5003;68467;50.960;0.314;2024-03-07T15:43:58;46;41;
64627;PMS5003;68467;50.960;0.314;2024-03-07T15:46:26;43;40;
64627;PMS5003;68467;50.960;0.314;2024-03-07T15:48:54;41;39;
64627;PMS5003;68467;50.960;0.314;2024-03-07T15:51:20;46;42;
64627;PMS5003;68467;50.960;0.314;2024-03-07T15:53:47;43;41;
64627;PMS5003;68467;50.960;0.314;2024-03-07T15:56:14;43;40;
64627;PMS5003;68467;50.960;0.314;2024-03-07T15:58:41;44;42;
64627;PMS5003;68467;50.960;0.314;2024-03-07T16:01:09;47;45;
64627;PMS5003;68467;50.960;0.314;2024-03-07T16:03:36;48;44;
64627;PMS5003;68467;50.960;0.314;2024-03-07T16:06:04;47;45;
64627;PMS5003;68467;50.960;0.314;2024-03-07T16:08:31;48;44;
64627;PMS5003;68467;50.960;0.314;2024-03-07T16:10:58;50;47;
64627;PMS5003;68467;50.960;0.314;2024-03-07T16:13:26;48;44;
64627;PMS5003;68467;50.960;0.314;2024-03-07T16:15:53;41;40;
64627;PMS5003;68467;50.960;0.314;2024-03-07T16:18:20;48;46;
64627;PMS5003;68467;50.960;0.314;2024-03-07T16:20:47;44;39;
64627;PMS5003;68467;50.960;0.314;2024-03-07T16:23:15;45;41;
64627;PMS5003;68467;50.960;0.314;2024-03-07T16:25:42;49;47;